Time;durP1;ratioP1;P1;durP2;ratioP2;P2;SDS_P1;SDS_P2;PMS_P1;PMS_P2;Temp;Humidity;BMP_temperature;BMP_pressure;BME280_temperature;BME280_humidity;BME280_pressure;Samples;Min_cycle;Max_cycle;Signal;HPM_P1;HPM_P2
2022/03/10 00:00:53;;;;;;;10.83;6.67;;;1.50;99.90;;;;;;5014571;28;20166;-64
2022/03/10 00:03:19;;;;;;;9.73;6.83;;;1.40;99.90;;;;;;5014603;28;20216;-64
2022/03/10 00:05:45;;;;;;;12.20;6.63;;;1.40;99.90;;;;;;5014820;28;20174;-62
2022/03/10 00:08:10;;;;;;;10.87;6.30;;;1.30;99.90;;;;;;5014410;28;20169;-62
2022/03/10 00:10:36;;;;;;;10.37;6.63;;;1.40;99.90;;;;;;5014371;28;20170;-65
2022/03/10 00:13:02;;;;;;;10.10;6.67;;;1.30;99.90;;;;;;4997167;28;20177;-63
2022/03/10 00:15:28;;;;;;;12.10;7.07;;;1.30;99.90;;;;;;5014265;28;20161;-63
2022/03/10 00:17:54;;;;;;;10.00;6.43;;;1.40;99.90;;;;;;5014366;28;20247;-63
2022/03/10 00:20:21;;;;;;;9.90;6.83;;;1.30;99.90;;;;;;5014749;28;20161;-62
2022/03/10 00:22:51;;;;;;;9.50;6.77;;;1.40;99.90;;;;;;5014386;28;20158;-63
2022/03/10 00:25:17;;;;;;;9.27;6.57;;;1.40;99.90;;;;;;4996554;28;20598;-64
2022/03/10 00:27:43;;;;;;;12.60;6.67;;;1.40;99.90;;;;;;4996619;28;20256;-63
2022/03/10 00:30:10;;;;;;;11.93;7.17;;;1.30;99.90;;;;;;5013745;28;20212;-63
2022/03/10 00:32:47;;;;;;;15.80;7.73;;;1.40;99.90;;;;;;5014530;28;20597;-63
2022/03/10 00:35:23;;;;;;;10.13;6.50;;;1.50;99.90;;;;;;5014592;28;20157;-64
2022/03/10 00:37:49;;;;;;;9.93;6.03;;;1.60;99.90;;;;;;5015558;28;20251;-64
2022/03/10 00:40:16;;;;;;;11.60;6.93;;;1.60;99.90;;;;;;5015890;28;20248;-63
2022/03/10 00:42:43;;;;;;;8.97;6.03;;;1.60;99.90;;;;;;5014278;28;20173;-63
2022/03/10 00:45:10;;;;;;;14.03;6.87;;;1.40;99.90;;;;;;5014367;28;20241;-63
2022/03/10 00:47:35;;;;;;;11.47;6.00;;;1.40;99.90;;;;;;5014882;28;20608;-65
2022/03/10 00:50:03;;;;;;;9.53;5.73;;;1.40;99.90;;;;;;5015134;28;20215;-65
2022/03/10 00:52:28;;;;;;;10.27;5.90;;;1.30;99.90;;;;;;5015261;28;20205;-65
2022/03/10 00:54:54;;;;;;;9.27;6.17;;;1.30;99.90;;;;;;5015859;28;20162;-64
2022/03/10 00:57:20;;;;;;;9.80;6.03;;;1.30;99.90;;;;;;5015653;28;20186;-64
2022/03/10 00:59:46;;;;;;;11.67;6.23;;;1.20;99.90;;;;;;5016387;28;20215;-64
2022/03/10 01:02:11;;;;;;;13.00;6.47;;;1.20;99.90;;;;;;5016755;28;20256;-64
2022/03/10 01:04:37;;;;;;;9.73;6.23;;;1.20;99.90;;;;;;5017980;28;20161;-63
2022/03/10 01:07:03;;;;;;;9.57;6.07;;;1.10;99.90;;;;;;5021872;28;20180;-63
2022/03/10 01:09:29;;;;;;;15.47;5.90;;;1.00;99.90;;;;;;5025870;28;20203;-64
2022/03/10 01:11:54;;;;;;;10.23;6.03;;;0.90;99.90;;;;;;5026263;28;20179;-63
2022/03/10 01:14:20;;;;;;;11.03;6.60;;;0.90;99.90;;;;;;5024012;28;20226;-63
2022/03/10 01:16:46;;;;;;;11.63;6.63;;;0.90;99.90;;;;;;5023631;28;20197;-63
2022/03/10 01:19:11;;;;;;;11.23;6.93;;;0.90;99.90;;;;;;5026763;28;20629;-63
2022/03/10 01:21:37;;;;;;;10.77;6.77;;;1.00;99.90;;;;;;5029338;28;20198;-64
2022/03/10 01:24:03;;;;;;;11.43;6.40;;;0.90;99.90;;;;;;5027380;28;20184;-66
2022/03/10 01:26:28;;;;;;;9.47;6.00;;;0.90;99.90;;;;;;5025845;28;20192;-65
2022/03/10 01:28:54;;;;;;;18.10;7.03;;;0.80;99.90;;;;;;5026091;28;20192;-64
2022/03/10 01:31:20;;;;;;;10.47;6.13;;;0.90;99.90;;;;;;5021336;28;20196;-64
2022/03/10 01:33:45;;;;;;;13.37;7.50;;;0.80;99.90;;;;;;5022858;28;20656;-65
2022/03/10 01:36:11;;;;;;;8.73;5.67;;;0.90;99.90;;;;;;5021956;28;20621;-64
2022/03/10 01:38:39;;;;;;;9.77;6.57;;;0.80;99.90;;;;;;5020996;28;20208;-64
2022/03/10 01:41:09;;;;;;;10.30;6.30;;;0.70;99.90;;;;;;5021429;28;20224;-65
2022/03/10 01:43:56;;;;;;;8.90;6.70;;;0.70;99.90;;;;;;5020952;28;20601;-63
2022/03/10 01:46:21;;;;;;;9.57;6.60;;;0.80;99.90;;;;;;5019846;28;20205;-63
2022/03/10 01:48:47;;;;;;;12.13;6.67;;;0.70;99.90;;;;;;5019685;28;20165;-63
2022/03/10 01:51:13;;;;;;;11.00;6.93;;;0.70;99.90;;;;;;5019787;28;20180;-64
2022/03/10 01:53:39;;;;;;;11.97;6.50;;;0.70;99.90;;;;;;5020050;28;20280;-62
2022/03/10 01:56:05;;;;;;;11.10;6.20;;;0.70;99.90;;;;;;5020517;28;20173;-64
2022/03/10 01:58:31;;;;;;;12.47;7.00;;;0.70;99.90;;;;;;5020565;28;20194;-63
2022/03/10 02:00:57;;;;;;;12.53;6.40;;;0.60;99.90;;;;;;5020300;28;20170;-63
2022/03/10 02:03:23;;;;;;;11.47;6.73;;;0.50;99.90;;;;;;5023819;28;20189;-64
2022/03/10 02:05:48;;;;;;;17.97;6.50;;;0.50;99.90;;;;;;5020699;28;20178;-64
2022/03/10 02:10:58;;;;;;;11.93;7.37;;;0.40;99.90;;;;;;5019472;28;20168;-64
2022/03/10 02:13:24;;;;;;;11.97;6.50;;;0.40;99.90;;;;;;5019206;28;20528;-63
2022/03/10 02:18:34;;;;;;;11.23;6.17;;;0.30;99.90;;;;;;5017391;28;20246;-63
2022/03/10 02:20:59;;;;;;;12.63;6.73;;;0.40;99.90;;;;;;5016344;28;20252;-63
2022/03/10 02:23:25;;;;;;;9.37;6.33;;;0.40;99.90;;;;;;5017060;28;20511;-64
2022/03/10 02:25:51;;;;;;;12.47;6.17;;;0.30;99.90;;;;;;5016958;28;20240;-63
2022/03/10 02:28:17;;;;;;;11.67;6.27;;;0.30;99.90;;;;;;5016946;28;20235;-68
2022/03/10 02:30:43;;;;;;;12.83;6.70;;;0.30;99.90;;;;;;5026503;28;20189;-64
2022/03/10 02:33:08;;;;;;;9.17;6.23;;;0.20;99.90;;;;;;5019757;28;20166;-63
2022/03/10 02:35:35;;;;;;;10.90;6.43;;;0.30;99.90;;;;;;5021614;28;20228;-63
2022/03/10 02:38:02;;;;;;;9.50;6.47;;;0.20;99.90;;;;;;5023691;28;20207;-63
2022/03/10 02:40:28;;;;;;;10.90;6.07;;;0.20;99.90;;;;;;5016574;28;20162;-64
2022/03/10 02:42:54;;;;;;;10.73;6.23;;;0.20;99.90;;;;;;5017156;28;20165;-64
2022/03/10 02:45:21;;;;;;;11.13;6.90;;;0.20;99.90;;;;;;5016477;28;20260;-63
2022/03/10 02:47:47;;;;;;;10.90;7.07;;;0.20;99.90;;;;;;5016328;28;20619;-63
2022/03/10 02:50:12;;;;;;;11.37;6.37;;;0.10;99.90;;;;;;5015964;28;20205;-63
2022/03/10 02:52:39;;;;;;;12.87;6.90;;;0.20;99.90;;;;;;5016223;28;20175;-63
2022/03/10 02:55:05;;;;;;;9.63;6.33;;;0.20;99.90;;;;;;5014755;28;20268;-63
2022/03/10 02:57:31;;;;;;;10.87;6.53;;;0.10;99.90;;;;;;5016042;28;20224;-64
2022/03/10 02:59:59;;;;;;;10.23;6.20;;;0.10;99.90;;;;;;5015747;28;20551;-63
2022/03/10 03:02:26;;;;;;;12.53;6.50;;;0.00;99.90;;;;;;5015166;28;20247;-63
2022/03/10 03:04:51;;;;;;;9.70;6.17;;;0.10;99.90;;;;;;5015705;28;20248;-64
2022/03/10 03:07:17;;;;;;;10.40;6.43;;;0.10;99.90;;;;;;5014443;28;20193;-63
2022/03/10 03:09:43;;;;;;;10.57;6.60;;;0.10;99.90;;;;;;5016274;28;20169;-64
2022/03/10 03:12:08;;;;;;;9.87;6.50;;;0.10;99.90;;;;;;5015310;28;20232;-64
2022/03/10 03:14:34;;;;;;;10.20;6.43;;;-0.10;99.90;;;;;;5016199;28;20185;-63
2022/03/10 03:17:00;;;;;;;10.13;6.93;;;-0.10;99.90;;;;;;5014142;28;20192;-63
2022/03/10 03:19:26;;;;;;;10.17;6.37;;;0.00;99.90;;;;;;5015420;28;20229;-64
2022/03/10 03:21:51;;;;;;;8.97;6.23;;;0.00;99.90;;;;;;5015367;28;20178;-63
2022/03/10 03:24:18;;;;;;;15.23;7.27;;;-0.10;99.90;;;;;;5014050;28;20582;-64
2022/03/10 03:26:44;;;;;;;13.60;6.57;;;0.00;99.90;;;;;;5015376;28;20571;-64
2022/03/10 03:29:10;;;;;;;13.03;7.03;;;-0.10;99.90;;;;;;5015584;28;20177;-64
2022/03/10 03:31:36;;;;;;;11.30;6.87;;;-0.10;99.90;;;;;;5010288;28;20174;-65
2022/03/10 03:34:09;;;;;;;11.03;6.73;;;0.00;99.90;;;;;;4995682;28;20170;-64
2022/03/10 03:36:38;;;;;;;10.57;6.90;;;0.10;99.90;;;;;;4982066;28;20579;-63
2022/03/10 03:39:04;;;;;;;12.53;6.80;;;0.20;99.90;;;;;;4998878;28;20614;-62
2022/03/10 03:41:30;;;;;;;10.87;6.20;;;0.20;99.90;;;;;;4997570;28;20178;-63
2022/03/10 03:43:56;;;;;;;12.33;6.40;;;0.30;99.90;;;;;;4995319;28;20584;-63
2022/03/10 03:46:21;;;;;;;9.83;6.30;;;0.30;99.90;;;;;;4994884;28;20523;-65
2022/03/10 03:48:47;;;;;;;12.93;6.03;;;0.30;99.90;;;;;;4995250;28;20194;-63
2022/03/10 03:51:13;;;;;;;12.77;6.83;;;0.20;99.90;;;;;;4995598;28;20181;-65
2022/03/10 03:53:38;;;;;;;11.23;6.77;;;0.30;99.90;;;;;;4995281;28;20166;-63
2022/03/10 03:56:04;;;;;;;10.70;6.73;;;0.20;99.90;;;;;;4995193;28;20162;-63
2022/03/10 03:58:29;;;;;;;11.23;6.37;;;0.20;99.90;;;;;;4995387;28;20198;-64
2022/03/10 04:00:55;;;;;;;10.27;6.43;;;0.20;99.90;;;;;;4995277;28;20188;-64
2022/03/10 04:03:21;;;;;;;12.83;6.90;;;0.10;99.90;;;;;;4995289;28;20261;-65
2022/03/10 04:05:46;;;;;;;11.97;6.60;;;0.10;99.90;;;;;;4995360;28;20188;-64
2022/03/10 04:08:12;;;;;;;13.13;6.40;;;0.10;99.90;;;;;;4995752;28;20649;-64
2022/03/10 04:10:39;;;;;;;10.70;6.67;;;0.10;99.90;;;;;;4995189;28;20165;-64
2022/03/10 04:13:05;;;;;;;11.63;6.70;;;0.10;99.90;;;;;;4994236;28;20273;-63
2022/03/10 04:15:34;;;;;;;12.33;6.83;;;0.10;99.90;;;;;;4994571;28;20633;-64
2022/03/10 04:18:01;;;;;;;11.70;6.90;;;0.10;99.90;;;;;;4994562;28;20638;-64
2022/03/10 04:20:27;;;;;;;15.77;6.90;;;0.10;99.90;;;;;;4977499;28;20258;-63
2022/03/10 04:22:53;;;;;;;13.10;6.67;;;0.00;99.90;;;;;;4994714;28;20230;-63
2022/03/10 04:25:19;;;;;;;13.20;7.47;;;0.00;99.90;;;;;;4995243;28;20227;-63
2022/03/10 04:27:44;;;;;;;10.10;6.43;;;0.00;99.90;;;;;;4996863;28;20272;-63
2022/03/10 04:30:11;;;;;;;10.30;6.73;;;0.10;99.90;;;;;;4994737;28;20189;-63
2022/03/10 04:32:45;;;;;;;10.23;6.60;;;0.00;99.90;;;;;;4995198;28;20240;-63
2022/03/10 04:35:14;;;;;;;11.90;6.67;;;-0.10;99.90;;;;;;4995153;28;20525;-64
2022/03/10 04:37:40;;;;;;;12.47;7.30;;;-0.10;99.90;;;;;;4977416;28;20245;-64
2022/03/10 04:40:07;;;;;;;9.73;6.43;;;-0.10;99.90;;;;;;4996166;28;20162;-63
2022/03/10 04:42:38;;;;;;;11.83;7.03;;;-0.20;99.90;;;;;;4996619;28;20561;-63
2022/03/10 04:45:06;;;;;;;10.20;6.50;;;-0.20;99.90;;;;;;4999604;28;20166;-64
2022/03/10 04:47:32;;;;;;;9.50;6.47;;;-0.20;99.90;;;;;;5001227;28;20181;-63
2022/03/10 04:49:58;;;;;;;12.73;7.20;;;-0.30;99.90;;;;;;4999504;28;20193;-65
2022/03/10 04:52:27;;;;;;;10.23;6.13;;;-0.30;99.90;;;;;;5000276;28;20199;-63
2022/03/10 04:54:54;;;;;;;10.87;6.67;;;-0.30;99.90;;;;;;4981403;28;20223;-63
2022/03/10 04:57:19;;;;;;;11.17;6.90;;;-0.30;99.90;;;;;;4999901;28;20186;-63
2022/03/10 04:59:45;;;;;;;11.57;5.87;;;-0.40;99.90;;;;;;4999770;28;20227;-64
2022/03/10 05:02:11;;;;;;;11.60;6.40;;;-0.40;99.90;;;;;;4998546;28;20629;-63
2022/03/10 05:04:37;;;;;;;12.77;7.30;;;-0.60;99.90;;;;;;4994594;28;20614;-64
2022/03/10 05:07:04;;;;;;;8.23;5.80;;;-0.60;99.90;;;;;;4993755;28;20209;-64
2022/03/10 05:09:30;;;;;;;10.17;5.83;;;-0.60;99.90;;;;;;4994336;28;20177;-63
2022/03/10 05:11:55;;;;;;;10.70;6.40;;;-0.60;99.90;;;;;;4994194;28;20170;-64
2022/03/10 05:14:21;;;;;;;12.53;6.33;;;-0.70;99.90;;;;;;4993947;28;20174;-64
2022/03/10 05:16:47;;;;;;;9.70;6.67;;;-0.70;99.90;;;;;;4994250;28;20170;-64
2022/03/10 05:19:13;;;;;;;18.63;9.37;;;-0.70;99.90;;;;;;4993840;28;20630;-63
2022/03/10 05:21:40;;;;;;;30.90;13.80;;;-0.70;99.90;;;;;;4994011;28;20180;-63
2022/03/10 05:24:06;;;;;;;23.97;11.57;;;-0.70;99.90;;;;;;4993906;28;20188;-65
2022/03/10 05:26:31;;;;;;;15.83;9.13;;;-0.70;99.90;;;;;;4994135;28;20645;-64
2022/03/10 05:28:57;;;;;;;12.27;7.70;;;-0.80;99.90;;;;;;4993517;28;20172;-64
2022/03/10 05:31:22;;;;;;;12.37;8.07;;;-0.80;99.90;;;;;;4994141;28;20157;-63
2022/03/10 05:33:48;;;;;;;14.50;7.10;;;-0.70;99.90;;;;;;4994071;28;20170;-63
2022/03/10 05:36:19;;;;;;;13.40;7.00;;;-0.60;99.90;;;;;;4991767;28;20276;-64
2022/03/10 05:38:45;;;;;;;14.30;7.90;;;-0.60;99.90;;;;;;5013335;28;20201;-65
2022/03/10 05:41:11;;;;;;;11.03;6.90;;;-0.60;99.90;;;;;;5012997;28;20170;-65
2022/03/10 05:43:36;;;;;;;14.23;7.93;;;-0.50;99.90;;;;;;4996433;28;20265;-64
2022/03/10 05:46:02;;;;;;;13.63;8.30;;;-0.50;99.90;;;;;;5013155;28;20173;-63
2022/03/10 05:48:29;;;;;;;16.53;9.93;;;-0.50;99.90;;;;;;5013048;28;20248;-64
2022/03/10 05:50:55;;;;;;;34.37;16.07;;;-0.50;99.90;;;;;;5012968;28;20687;-64
2022/03/10 05:53:20;;;;;;;37.97;19.60;;;-0.40;99.90;;;;;;5015129;28;20277;-63
2022/03/10 05:55:46;;;;;;;36.60;19.77;;;-0.50;99.90;;;;;;4999779;28;20174;-64
2022/03/10 05:58:12;;;;;;;32.73;18.57;;;-0.50;99.90;;;;;;5016796;28;20195;-65
2022/03/10 06:00:37;;;;;;;27.90;15.43;;;-0.40;99.90;;;;;;5019165;28;20166;-63
2022/03/10 06:03:03;;;;;;;25.27;13.53;;;-0.30;99.90;;;;;;5020217;28;20169;-64
2022/03/10 06:05:29;;;;;;;25.77;12.77;;;-0.40;99.90;;;;;;5020055;28;20250;-64
2022/03/10 06:07:55;;;;;;;23.63;15.30;;;-0.40;99.90;;;;;;5000421;28;20180;-65
2022/03/10 06:10:22;;;;;;;32.43;17.73;;;-0.40;99.90;;;;;;5017728;28;20174;-63
2022/03/10 06:12:48;;;;;;;16.53;10.53;;;-0.40;99.90;;;;;;4999708;28;20169;-64
2022/03/10 06:15:15;;;;;;;15.97;8.83;;;-0.30;99.90;;;;;;5016379;28;20617;-62
2022/03/10 06:17:41;;;;;;;16.23;8.53;;;-0.40;99.90;;;;;;5016481;28;20175;-63
2022/03/10 06:20:08;;;;;;;16.17;8.40;;;-0.30;99.90;;;;;;5017911;28;20258;-64
2022/03/10 06:22:34;;;;;;;14.47;8.63;;;-0.20;99.90;;;;;;5017961;28;20173;-64
2022/03/10 06:25:00;;;;;;;20.03;8.63;;;-0.10;99.90;;;;;;5016794;28;20181;-63
2022/03/10 06:27:26;;;;;;;17.07;10.10;;;0.20;99.90;;;;;;4998787;28;20571;-65
2022/03/10 06:29:53;;;;;;;12.60;7.57;;;0.00;99.90;;;;;;4999162;28;20179;-64
2022/03/10 06:32:21;;;;;;;11.33;7.50;;;0.00;99.90;;;;;;5015985;28;20162;-63
2022/03/10 06:34:49;;;;;;;18.63;7.47;;;0.00;99.90;;;;;;5016075;28;20165;-64
2022/03/10 06:37:15;;;;;;;15.20;9.27;;;0.20;99.90;;;;;;5015955;28;20166;-65
2022/03/10 06:39:43;;;;;;;21.90;8.23;;;0.20;99.90;;;;;;5018017;28;20199;-63
2022/03/10 06:42:09;;;;;;;14.83;7.67;;;0.30;99.90;;;;;;5016662;28;20165;-63
2022/03/10 06:44:36;;;;;;;11.53;7.70;;;0.30;99.90;;;;;;4998220;28;20197;-63
2022/03/10 06:47:12;;;;;;;18.57;8.87;;;0.30;99.90;;;;;;5016802;28;20203;-63
2022/03/10 06:49:39;;;;;;;13.77;7.80;;;0.50;99.90;;;;;;5015717;28;20161;-65
2022/03/10 06:52:05;;;;;;;11.70;7.33;;;0.60;99.90;;;;;;4998482;28;20242;-63
2022/03/10 06:54:31;;;;;;;13.77;7.37;;;0.60;99.90;;;;;;5015860;28;20170;-63
2022/03/10 06:56:57;;;;;;;12.00;7.90;;;0.60;99.90;;;;;;5015942;28;20193;-63
2022/03/10 06:59:22;;;;;;;12.43;8.37;;;0.70;99.90;;;;;;5016062;28;20290;-63
2022/03/10 07:01:48;;;;;;;14.27;8.50;;;0.90;99.90;;;;;;5015222;28;20606;-63
2022/03/10 07:04:13;;;;;;;15.63;7.93;;;0.80;99.90;;;;;;5014603;28;20166;-63
2022/03/10 07:06:39;;;;;;;16.67;9.17;;;1.00;99.90;;;;;;5015582;28;20166;-63
2022/03/10 07:09:05;;;;;;;17.40;11.87;;;0.90;99.90;;;;;;4998733;28;20182;-64
2022/03/10 07:11:30;;;;;;;11.50;7.53;;;1.00;99.90;;;;;;5016132;28;20166;-64
2022/03/10 07:13:56;;;;;;;12.37;7.67;;;1.00;99.90;;;;;;4998757;28;20268;-63
2022/03/10 07:16:22;;;;;;;13.20;8.03;;;1.00;99.90;;;;;;5015131;28;20561;-65
2022/03/10 07:18:50;;;;;;;12.80;7.13;;;1.00;99.90;;;;;;5015001;28;20197;-63
2022/03/10 07:21:20;;;;;;;16.50;8.07;;;1.00;99.90;;;;;;5015191;28;20178;-63
2022/03/10 07:23:46;;;;;;;14.77;7.80;;;1.20;99.90;;;;;;5015273;28;20192;-64
2022/03/10 07:26:12;;;;;;;17.00;8.33;;;1.40;99.90;;;;;;5015374;28;20166;-63
2022/03/10 07:28:38;;;;;;;14.80;8.50;;;1.30;99.90;;;;;;5015593;28;20233;-63
2022/03/10 07:31:04;;;;;;;11.90;7.70;;;1.40;99.90;;;;;;5015778;28;20601;-64
2022/03/10 07:33:29;;;;;;;13.90;7.73;;;1.50;99.90;;;;;;5016172;28;20224;-64
2022/03/10 07:35:55;;;;;;;11.33;7.20;;;1.50;99.90;;;;;;5017612;28;20170;-63
2022/03/10 07:38:22;;;;;;;11.10;7.27;;;1.40;99.90;;;;;;5020480;28;20204;-63
2022/03/10 07:40:48;;;;;;;11.43;7.23;;;1.70;99.90;;;;;;5020522;28;20181;-65
2022/03/10 07:43:13;;;;;;;14.23;7.63;;;1.80;99.90;;;;;;5021920;28;20165;-65
2022/03/10 07:45:39;;;;;;;12.63;7.90;;;1.90;99.90;;;;;;5020700;28;20169;-64
2022/03/10 07:48:05;;;;;;;13.37;8.10;;;2.10;99.90;;;;;;5020492;28;20169;-64
2022/03/10 07:50:30;;;;;;;18.90;8.10;;;2.30;99.90;;;;;;5025675;28;20161;-65
2022/03/10 07:52:56;;;;;;;17.40;8.50;;;2.30;99.90;;;;;;5026308;28;20256;-64
2022/03/10 07:55:22;;;;;;;10.57;6.00;;;2.40;99.90;;;;;;5025739;28;20158;-63
2022/03/10 07:57:48;;;;;;;15.17;6.70;;;2.50;99.90;;;;;;5024730;28;20176;-64
2022/03/10 08:00:14;;;;;;;12.43;6.30;;;2.40;99.90;;;;;;5025834;28;20185;-65
2022/03/10 08:02:40;;;;;;;12.47;7.47;;;2.50;99.90;;;;;;5025748;28;20169;-65
2022/03/10 08:05:06;;;;;;;16.13;7.30;;;2.70;99.90;;;;;;5026435;28;20175;-68
2022/03/10 08:07:34;;;;;;;10.23;5.93;;;2.70;99.90;;;;;;5022945;28;20205;-63
2022/03/10 08:10:03;;;;;;;11.20;5.83;;;2.80;99.90;;;;;;5019330;28;20158;-63
2022/03/10 08:12:30;;;;;;;12.43;7.50;;;3.00;99.90;;;;;;5015051;28;20201;-63
2022/03/10 08:14:56;;;;;;;12.30;6.40;;;3.10;99.90;;;;;;5014813;28;20166;-63
2022/03/10 08:17:22;;;;;;;11.20;6.23;;;3.20;99.90;;;;;;5014050;28;20623;-63
2022/03/10 08:19:48;;;;;;;10.87;5.90;;;3.50;99.90;;;;;;5014652;28;20195;-63
2022/03/10 08:22:17;;;;;;;13.83;7.13;;;3.40;99.90;;;;;;5014055;28;20179;-63
2022/03/10 08:24:44;;;;;;;8.77;5.70;;;3.50;99.90;;;;;;4993374;28;20185;-64
2022/03/10 08:27:09;;;;;;;14.10;6.20;;;3.70;99.90;;;;;;5014038;28;20556;-65
2022/03/10 08:29:35;;;;;;;10.60;6.33;;;3.80;99.90;;;;;;5014082;28;20182;-63
2022/03/10 08:32:01;;;;;;;12.00;6.30;;;3.90;99.90;;;;;;5014074;28;20607;-62
2022/03/10 08:34:26;;;;;;;10.80;6.30;;;4.00;99.90;;;;;;5013756;28;20685;-63
2022/03/10 08:36:52;;;;;;;10.00;6.20;;;4.00;99.90;;;;;;5014089;28;20176;-63
2022/03/10 08:39:18;;;;;;;10.13;6.27;;;4.20;99.90;;;;;;5014016;28;20205;-64
2022/03/10 08:41:44;;;;;;;12.53;6.43;;;4.60;99.90;;;;;;5014051;28;20223;-64
2022/03/10 08:44:12;;;;;;;12.10;6.77;;;4.60;99.90;;;;;;5013858;28;20161;-64
2022/03/10 08:46:38;;;;;;;15.23;6.77;;;4.50;99.90;;;;;;5013815;28;20233;-64
2022/03/10 08:49:04;;;;;;;11.53;7.10;;;4.80;99.90;;;;;;5014176;28;20166;-64
2022/03/10 08:51:29;;;;;;;13.27;6.40;;;4.90;99.90;;;;;;5014121;28;20168;-64
2022/03/10 08:53:55;;;;;;;13.87;6.40;;;5.10;99.90;;;;;;5013473;28;20187;-63
2022/03/10 08:56:21;;;;;;;10.50;6.00;;;5.30;99.90;;;;;;4996614;28;20200;-63
2022/03/10 08:58:46;;;;;;;12.10;6.73;;;5.30;99.90;;;;;;4995694;28;20240;-63
2022/03/10 09:01:12;;;;;;;12.17;6.97;;;5.30;99.90;;;;;;4996498;28;20295;-63
2022/03/10 09:03:38;;;;;;;16.20;6.63;;;5.50;99.90;;;;;;5014310;28;20167;-63
2022/03/10 09:06:04;;;;;;;11.70;7.10;;;5.70;99.90;;;;;;5016847;28;20177;-63
2022/03/10 09:08:30;;;;;;;14.03;7.77;;;5.90;99.90;;;;;;5019083;28;20162;-64
2022/03/10 09:10:55;;;;;;;12.37;7.10;;;5.90;99.90;;;;;;5018468;28;20174;-65
2022/03/10 09:13:22;;;;;;;12.53;7.07;;;6.10;99.90;;;;;;5018817;28;20200;-65
2022/03/10 09:15:48;;;;;;;10.63;6.17;;;6.20;99.90;;;;;;5017487;28;20195;-66
2022/03/10 09:18:14;;;;;;;13.33;7.73;;;6.40;99.90;;;;;;5015463;28;20185;-67
2022/03/10 09:20:39;;;;;;;13.17;7.03;;;6.70;99.90;;;;;;4998441;28;20277;-65
2022/03/10 09:23:05;;;;;;;10.97;6.87;;;6.80;99.90;;;;;;5015539;28;20200;-66
2022/03/10 09:25:31;;;;;;;12.63;7.20;;;6.90;99.90;;;;;;4997351;28;20190;-65
2022/03/10 09:27:57;;;;;;;15.60;8.00;;;7.00;99.90;;;;;;5015597;28;20281;-65
2022/03/10 09:30:22;;;;;;;11.73;7.17;;;7.10;99.90;;;;;;5000123;28;20212;-66
2022/03/10 09:32:48;;;;;;;15.93;7.73;;;7.30;99.90;;;;;;5017616;28;20172;-64
2022/03/10 09:35:16;;;;;;;14.03;7.50;;;7.50;99.90;;;;;;5017734;28;20169;-65
2022/03/10 09:37:42;;;;;;;15.87;7.53;;;7.70;99.90;;;;;;5017272;28;20191;-65
2022/03/10 09:40:09;;;;;;;12.73;7.27;;;7.80;99.90;;;;;;5017224;28;20185;-66
2022/03/10 09:42:36;;;;;;;10.73;6.93;;;8.00;99.90;;;;;;5017264;28;20181;-64
2022/03/10 09:45:08;;;;;;;11.43;6.37;;;8.20;99.90;;;;;;5016900;28;20220;-63
2022/03/10 09:47:38;;;;;;;12.97;6.73;;;8.30;99.50;;;;;;4999330;28;20219;-65
2022/03/10 09:50:07;;;;;;;15.47;6.83;;;8.50;99.20;;;;;;5017800;28;20169;-66
2022/03/10 09:52:33;;;;;;;11.70;7.03;;;8.60;97.10;;;;;;5016838;28;20698;-64
2022/03/10 09:54:59;;;;;;;11.43;6.53;;;8.70;97.00;;;;;;4999098;28;20177;-65
2022/03/10 09:57:25;;;;;;;14.07;6.47;;;8.70;96.10;;;;;;5016930;28;20169;-64
2022/03/10 09:59:53;;;;;;;10.10;5.83;;;8.70;95.70;;;;;;5016305;28;20288;-65
2022/03/10 10:02:19;;;;;;;10.73;6.33;;;8.70;94.70;;;;;;5017516;28;20170;-64
2022/03/10 10:04:46;;;;;;;12.43;6.40;;;8.90;93.50;;;;;;5017139;28;20169;-64
2022/03/10 10:07:12;;;;;;;11.47;6.27;;;9.10;91.10;;;;;;5016725;28;20601;-65
2022/03/10 10:09:46;;;;;;;11.53;6.23;;;9.10;91.00;;;;;;5017034;28;20299;-65
2022/03/10 10:12:14;;;;;;;12.23;5.57;;;9.50;89.00;;;;;;5016694;28;20158;-65
2022/03/10 10:14:43;;;;;;;7.47;4.83;;;9.60;85.50;;;;;;5016720;28;20181;-65
2022/03/10 10:17:09;;;;;;;10.40;5.23;;;9.50;82.20;;;;;;4999408;28;20293;-65
2022/03/10 10:19:36;;;;;;;9.43;5.37;;;9.60;80.90;;;;;;5016504;28;20201;-64
2022/03/10 10:22:12;;;;;;;8.33;5.13;;;9.70;79.40;;;;;;5016422;28;20165;-64
2022/03/10 10:24:38;;;;;;;9.73;4.93;;;9.70;78.50;;;;;;5017198;28;20181;-64
2022/03/10 10:27:15;;;;;;;8.47;4.63;;;9.90;78.50;;;;;;4998948;28;20234;-64
2022/03/10 10:29:48;;;;;;;10.97;4.17;;;9.90;77.40;;;;;;5022370;28;20185;-64
2022/03/10 10:32:29;;;;;;;9.67;4.37;;;9.90;74.90;;;;;;5021516;28;20186;-65
2022/03/10 10:35:04;;;;;;;9.97;4.30;;;9.90;75.60;;;;;;5004460;28;20514;-64
2022/03/10 10:37:30;;;;;;;9.57;4.37;;;10.10;73.90;;;;;;5020348;28;20172;-64
2022/03/10 10:39:56;;;;;;;8.17;4.37;;;9.90;73.90;;;;;;5014927;28;20247;-65
2022/03/10 10:42:34;;;;;;;5.97;3.80;;;9.90;72.80;;;;;;5016467;28;20171;-65
2022/03/10 10:45:00;;;;;;;6.63;3.80;;;10.00;72.30;;;;;;5016487;28;20249;-65
2022/03/10 10:47:27;;;;;;;5.60;3.27;;;10.10;72.10;;;;;;5021991;28;20168;-66
2022/03/10 10:50:00;;;;;;;7.33;4.00;;;10.20;71.90;;;;;;5021757;28;20176;-69
2022/03/10 10:52:36;;;;;;;7.67;4.30;;;10.20;73.00;;;;;;5021026;28;20173;-65
2022/03/10 10:55:10;;;;;;;8.30;3.90;;;10.20;73.00;;;;;;5016942;28;20618;-65
2022/03/10 10:57:37;;;;;;;8.00;4.03;;;10.20;71.50;;;;;;4998292;28;20647;-66
2022/03/10 11:00:12;;;;;;;7.37;4.03;;;10.30;72.00;;;;;;5015959;28;20162;-66
2022/03/10 11:02:45;;;;;;;6.63;4.27;;;10.30;72.60;;;;;;5016054;28;20168;-65
2022/03/10 11:05:14;;;;;;;5.77;3.90;;;10.30;72.80;;;;;;5015984;28;20211;-64
2022/03/10 11:07:41;;;;;;;11.93;5.17;;;10.50;72.40;;;;;;5016273;28;20201;-64
2022/03/10 11:10:09;;;;;;;7.03;4.63;;;10.50;73.10;;;;;;5015852;28;20611;-66
2022/03/10 11:12:39;;;;;;;7.53;4.30;;;10.50;73.10;;;;;;5015558;28;20621;-64
2022/03/10 11:15:08;;;;;;;8.60;4.70;;;10.50;73.40;;;;;;5015581;28;20578;-65
2022/03/10 11:17:35;;;;;;;9.17;4.47;;;10.50;74.60;;;;;;5015680;28;20606;-65
2022/03/10 11:20:05;;;;;;;6.13;4.27;;;10.60;74.60;;;;;;5014925;28;20706;-64
2022/03/10 11:22:49;;;;;;;8.50;4.57;;;10.40;74.80;;;;;;5015466;28;20506;-65
2022/03/10 11:25:47;;;;;;;5.90;3.77;;;10.40;75.30;;;;;;5015627;28;20181;-63
2022/03/10 11:28:23;;;;;;;8.60;4.57;;;10.70;74.60;;;;;;5015588;28;20229;-64
2022/03/10 11:30:52;;;;;;;7.40;4.37;;;10.80;73.30;;;;;;5015223;28;20161;-64
2022/03/10 11:33:18;;;;;;;7.20;4.00;;;10.70;71.70;;;;;;5015255;28;20158;-68
2022/03/10 11:35:48;;;;;;;7.30;4.43;;;10.60;70.10;;;;;;5015393;28;20182;-65
2022/03/10 11:38:15;;;;;;;8.33;4.60;;;10.40;71.40;;;;;;5015201;28;20233;-64
2022/03/10 11:40:56;;;;;;;10.37;5.00;;;10.70;74.40;;;;;;5015449;28;20176;-64
2022/03/10 11:43:36;;;;;;;12.63;5.70;;;10.80;74.20;;;;;;5015368;28;20184;-65
2022/03/10 11:46:22;;;;;;;9.00;4.43;;;10.60;74.80;;;;;;5015332;28;20219;-64
2022/03/10 11:49:00;;;;;;;8.30;4.77;;;10.70;76.50;;;;;;5015250;28;20259;-65
2022/03/10 11:51:46;;;;;;;7.90;4.83;;;10.70;77.50;;;;;;5014618;28;20205;-66
2022/03/10 11:54:26;;;;;;;9.00;4.20;;;10.90;78.60;;;;;;5015441;28;20157;-63
2022/03/10 11:56:55;;;;;;;8.40;4.87;;;10.70;77.80;;;;;;5014911;28;20165;-66
2022/03/10 11:59:36;;;;;;;10.07;5.43;;;10.60;77.40;;;;;;5015636;28;20204;-64
2022/03/10 12:02:03;;;;;;;8.27;4.90;;;10.70;79.00;;;;;;5017956;28;20220;-63
2022/03/10 12:04:39;;;;;;;8.20;4.33;;;10.80;78.50;;;;;;5014919;28;20162;-64
2022/03/10 12:07:08;;;;;;;11.77;4.40;;;10.80;78.20;;;;;;5014415;28;20170;-64
2022/03/10 12:09:42;;;;;;;7.27;5.00;;;10.70;78.20;;;;;;5014689;28;20170;-66
2022/03/10 12:12:18;;;;;;;7.57;4.53;;;10.80;78.30;;;;;;5015192;28;20169;-65
2022/03/10 12:14:45;;;;;;;9.07;5.30;;;10.80;78.70;;;;;;5015016;28;20166;-64
2022/03/10 12:17:42;;;;;;;6.57;4.20;;;10.80;78.50;;;;;;5014522;28;20223;-65
2022/03/10 12:20:14;;;;;;;6.67;4.17;;;11.10;77.50;;;;;;5014462;28;20165;-66
2022/03/10 12:22:41;;;;;;;14.53;4.37;;;11.10;76.30;;;;;;5014795;28;20162;-66
2022/03/10 12:25:18;;;;;;;9.00;5.07;;;11.10;76.60;;;;;;5015611;28;20186;-64
2022/03/10 12:27:51;;;;;;;8.80;4.97;;;11.20;76.20;;;;;;4997968;28;20564;-65
2022/03/10 12:30:22;;;;;;;11.97;6.63;;;11.10;76.80;;;;;;5016749;28;20157;-65
2022/03/10 12:32:51;;;;;;;15.53;6.67;;;11.00;78.70;;;;;;5019977;28;20188;-65
2022/03/10 12:35:25;;;;;;;10.53;6.03;;;10.90;78.80;;;;;;5017361;28;20156;-64
2022/03/10 12:37:50;;;;;;;11.10;6.70;;;10.70;78.90;;;;;;5016101;28;20164;-64
2022/03/10 12:40:20;;;;;;;11.53;7.10;;;10.80;78.80;;;;;;5016317;28;20170;-66
2022/03/10 12:42:47;;;;;;;11.40;6.30;;;10.80;78.30;;;;;;5016471;28;20241;-64
2022/03/10 12:45:20;;;;;;;9.47;6.00;;;10.90;78.30;;;;;;4999832;28;20655;-67
2022/03/10 12:47:52;;;;;;;16.20;6.47;;;10.90;77.60;;;;;;5017564;28;20164;-66
2022/03/10 12:50:18;;;;;;;10.70;6.80;;;11.00;77.10;;;;;;5017268;28;20165;-65
2022/03/10 12:52:43;;;;;;;13.97;6.07;;;10.90;76.40;;;;;;5016698;28;20255;-66